Tiempo atmosférico en la estación meteorológica de San Clemente, Cuenca (728 m.)



Fecha
DESCASC
Temp. máxima en grados centígrados (hora)
DESCASC
Temp. mínima en grados centígrados (hora)
DESCASC
Temp. media en grados centígrados
DESCASC
Racha de viento máxima en m/sg (hora)
DESCASC
Velocidad máxima media en intervalos de 10 minutos(hora)
DESCASC
Precipitaciones diarias en mm
DESCASC
Precipitaciones de 00:00 a 06:00 en mm
DESCASC
Precipitaciones de 06:00 a 12:00 en mm
DESCASC
Precipitaciones de 12:00 a 18:00 en mm
DESCASC
Precipitaciones de 18:00 a 24:00 en mm
DESCASC
14-12-2019 9.9 (12:40) 8.1 (23:50) 9 11.39 (00:10) 8.61 (00:10) 0 0 0 0 0
13-12-2019 14.2 (14:40) 8.1 (00:00) 11.2 20 (13:00) 13.89 (11:50) 0 0 0 0 0
12-12-2019 8.1 (23:40) 0.7 (02:20) 4.4 18.89 (20:40) 13.06 (23:59) 0.8 0 0 0.6 0.2
11-12-2019 7.5 (14:40) -1.7 (-00:0) 2.9 11.11 (16:30) 7.78 (14:20) 0 0 0 0 0
10-12-2019 9.9 (16:40) -0.9 (-00:0) 4.5 9.17 (16:00) 6.94 (09:40) 0 0 0 0 0
09-12-2019 11.2 (16:40) 2.6 (00:00) 6.9 10.28 (14:00) 7.5 (14:00) 0 0 0 0 0
08-12-2019 7.6 (16:50) 3.5 (00:00) 5.5 7.22 (16:00) 5.56 (15:40) 0.4 0 0 0 0.4
07-12-2019 12.6 (15:40) 3 (00:00) 7.8 7.78 (22:00) 5.83 (21:50) 0 0 0 0 0
06-12-2019 11.6 (14:20) 3.7 (00:00) 7.7 -- (--) -- (--) 0 0 0 0 0
05-12-2019 12 (14:10) 5.9 (00:00) 9 -- (--) -- (--) 1.6 1.2 0 0.4 0
04-12-2019 8.7 (15:50) 5.7 (00:00) 7.2 -- (--) -- (--) 3.6 0.6 2.2 0.4 0.4
03-12-2019 7.9 (14:10) 5.7 (00:00) 6.8 9.72 (17:40) 6.11 (14:30) 1 0.6 0.2 0 0.2
02-12-2019 10 (13:20) 6.1 (00:00) 8 15.83 (13:30) 11.11 (13:30) 3.4 0 3.2 0.2 0
01-12-2019 11.7 (13:40) 6.2 (00:00) 8.9 12.5 (02:00) 7.5 (02:50) 1.6 1.4 0 0.2 0
30-11-2019 15.1 (14:20) 8.9 (00:00) 12 10.83 (16:30) 7.78 (16:00) 0 0 0 0 0
29-11-2019 13.4 (13:30) 6.5 (00:00) 9.9 10 (13:20) 7.78 (13:20) 0 0 0 0 0
28-11-2019 10.5 (16:00) 4.6 (00:00) 7.5 10 (17:10) 6.67 (17:20) 0 0 0 0 0
27-11-2019 12.8 (14:00) 6.9 (00:00) 9.9 15.83 (01:40) 10.28 (01:40) 0.6 0.6 0 0 0
26-11-2019 14.5 (16:10) 9.7 (00:00) 12.1 12.78 (23:59) 8.33 (23:40) 1.2 0 0 0 1.2
25-11-2019 13.4 (17:00) 5.7 (00:00) 9.5 11.67 (10:20) 8.33 (11:00) 0.4 0.2 0.2 0 0
24-11-2019 9.8 (15:30) 0.8 (00:00) 5.3 11.67 (14:20) 7.78 (14:10) 0 0 0 0 0
23-11-2019 10.7 (15:10) 3.4 (00:00) 7 19.72 (03:00) 12.5 (10:00) 7 6.8 0.2 0 0
22-11-2019 12.1 (16:00) 6.6 (00:00) 9.4 15.28 (23:20) 10 (23:30) 12.4 0 0.2 9.8 2.4
21-11-2019 10.3 (14:50) 5.1 (00:00) 7.7 8.06 (11:50) 5.56 (12:10) 1.6 0.2 0 1.2 0.2
20-11-2019 10.4 (14:00) -1 (-00:0) 4.7 8.06 (16:20) 5.56 (15:00) 2.2 0 0 0.6 1.6
19-11-2019 8.9 (15:20) -2 (-00:0) 3.4 7.5 (14:30) 5 (15:50) 0 0 0 0 0
18-11-2019 9.5 (15:10) 0.4 (00:00) 5 12.5 (12:10) 8.33 (12:10) 0 0 0 0 0
17-11-2019 7.3 (12:10) -1.9 (-00:0) 2.7 12.22 (12:40) 8.61 (11:00) 8.8 0 0 0 8.8
16-11-2019 9.1 (15:40) -1.1 (-00:0) 4 10.83 (15:20) 7.22 (11:30) 0 0 0 0 0

Gráficas

Temp. máximas Temp. mínimas Temp. medias Precipitaciones Rachas de viento máximas Velocidades máximas media en intervalos de 10 minutos

Datos horarios

Fecha y hora oficial Temperatura (ºC) Velocidad del viento (km/h) Dirección del viento Racha (km/h) Dirección de racha Precipitación (mm) Presión (hPa) Tendencia (hPa) Humedad (%)
2019-12-15 23:00:00 4.6 -- -- -- -- 0 928 -1.1 92
2019-12-15 22:00:00 4.3 5 Sudeste 10 Este 0 928.4 -0.9 91
2019-12-15 21:00:00 5.1 5 Este 9 Este 0 928.9 -0.5 89
2019-12-15 20:00:00 5.6 7 Este 10 Este 0 929.1 -0.7 86
2019-12-15 19:00:00 6.9 4 Este 6 Este 0 929.3 -0.8 82
2019-12-15 18:00:00 8.8 4 Norte 13 Norte 0 929.4 -1.2 74
2019-12-15 17:00:00 10.6 11 Norte 24 Norte 0 929.8 -1.4 66
2019-12-15 16:00:00 11.1 11 Norte 23 Nordeste 0 930.1 -2.1 63
2019-12-15 15:00:00 10.8 20 Norte 30 Norte 0 930.6 -2.3 64
2019-12-15 14:00:00 11.2 22 Norte 33 Norte 0 931.2 -2.1 63
2019-12-15 13:00:00 10.6 20 Norte 34 Norte 0 932.2 -0.8 63
2019-12-15 12:00:00 10.3 18 Norte 27 Norte 0 932.9 0 68
2019-12-15 11:00:00 9.4 18 Norte 25 Norte 0 933.3 0.7 75
2019-12-15 10:00:00 8.1 6 Norte 10 Norte 0 933 0.5 84
2019-12-15 09:00:00 7.4 6 Norte 9 Norte 0 932.9 0.3 88
2019-12-15 08:00:00 7.4 6 Norte 8 Norte 0 932.6 -0.3 87
2019-12-15 07:00:00 7.5 6 Norte 15 Norte 0 932.5 -0.8 85
2019-12-15 06:00:00 7.6 7 Norte 12 Norte 0 932.6 -1.1 86
2019-12-15 05:00:00 7.5 8 Norte 12 Norte 0 932.9 -0.9 89
2019-12-15 04:00:00 7.7 5 Norte 13 Nordeste 0 933.3 -1 88
2019-12-15 03:00:00 8.1 11 Norte 18 Norte 0 933.7 -1 83
2019-12-15 02:00:00 8 13 Norte 17 Norte 0 933.8 -0.9 85
2019-12-15 01:00:00 7.9 6 Norte 14 Norte 0 934.3 -0.6 87
2019-12-15 00:00:00 8.1 7 Norte 19 Norte 0 934.7 -0.3 86
2019-12-14 23:00:00 8.4 14 Norte 22 Noroeste 0 934.7 -0.4 82
2019-12-14 22:00:00 8.2 10 Norte 20 Norte 0 934.9 0 82
2019-12-14 21:00:00 8.4 14 Norte 22 Norte 0 935 0.2 79
2019-12-14 20:00:00 8.6 19 Norte 29 Norte 0 935.1 0.4 75
2019-12-14 19:00:00 8.4 15 Norte 25 Noroeste 0 934.9 0.2 77
2019-12-14 18:00:00 8.5 18 Noroeste 31 Noroeste 0 934.8 0.3 77
2019-12-14 17:00:00 8.9 23 Norte 34 Noroeste 0 934.7 -0.2 75
2019-12-14 16:00:00 9.2 22 Noroeste 36 Noroeste 0 934.7 -0.7 76
2019-12-14 15:00:00 9.7 26 Noroeste 38 Norte 0 934.5 -1.6 76
2019-12-14 14:00:00 9.5 22 Norte 32 Norte 0 934.9 -1.5 78
2019-12-14 13:00:00 9.9 23 Norte 39 Norte 0 935.4 -0.4 76
2019-12-14 12:00:00 9.3 22 Norte 33 Norte 0 936.1 0.8 88
2019-12-14 11:00:00 9.3 21 Norte 31 Norte 0 936.4 1.4 92
2019-12-14 10:00:00 9.2 23 Norte 31 Norte 0 935.8 1.3 90
2019-12-14 09:00:00 8.8 18 Norte 27 Norte 0 935.3 0.9 94
2019-12-14 08:00:00 8.8 21 Norte 32 Norte 0 935 0.2 95
2019-12-14 07:00:00 9 23 Norte 35 Norte 0 934.5 -0.6 95
2019-12-14 06:00:00 9.1 20 Norte 36 Norte 0 934.4 -0.4 93
2019-12-14 05:00:00 9.2 22 Norte 33 Norte 0 934.8 0 92
2019-12-14 04:00:00 9.2 24 Noroeste 36 Norte 0 935.1 0.2 92
2019-12-14 03:00:00 9.2 24 Norte 39 Norte 0 934.8 0 92
2019-12-14 02:00:00 9.1 20 Norte 40 Norte 0 934.8 0.3 93
2019-12-14 01:00:00 9 30 Norte 41 Norte 0 934.9 0.5 93
2019-12-14 00:00:00 8.8 29 Norte 44 Norte 0 934.8 0.6 95
2019-12-13 23:00:00 8.9 26 Norte 39 Norte 0 934.5 0.5 93
2019-12-13 22:00:00 9.3 27 Norte 49 Norte 0 934.4 1.4 92
2019-12-13 21:00:00 9.6 27 Norte 47 Norte 0 934.2 1.7 90
2019-12-13 20:00:00 10.4 29 Noroeste 43 Norte 0 934 1.4 87
2019-12-13 19:00:00 10.1 19 Norte 33 Norte 0 933 1.1 85
2019-12-13 18:00:00 11.2 25 Norte 51 Norte 0 932.5 1 78
2019-12-13 17:00:00 13.1 34 Norte 63 Norte 0 932.6 1.2 70
2019-12-13 16:00:00 13.3 41 Norte 68 Norte 0 931.9 0.2 68
2019-12-13 15:00:00 13.7 44 Norte 67 Norte 0 931.5 -0.4 65
2019-12-13 14:00:00 13.3 50 Norte 71 Norte 0 931.4 -1 67
2019-12-13 13:00:00 12.4 49 Norte 72 Norte 0 931.7 0.4 72
2019-12-13 12:00:00 11.8 46 Norte 66 Norte 0 931.9 1.4 79
2019-12-13 11:00:00 10.6 44 Norte 61 Norte 0 932.4 2.4 87
2019-12-13 10:00:00 10.1 42 Norte 65 Norte 0 931.3 1.9 91
2019-12-13 09:00:00 9.8 42 Norte 63 Norte 0 930.5 1.3 92
2019-12-13 08:00:00 9.9 44 Norte 63 Norte 0 930 0.5 94
2019-12-13 07:00:00 10.2 46 Norte 69 Norte 0 929.4 -0.3 94
2019-12-13 06:00:00 10.2 44 Norte 69 Norte 0 929.2 -0.6 94
2019-12-13 05:00:00 10 43 Norte 69 Norte 0 929.5 0 95
2019-12-13 04:00:00 9.7 40 Norte 62 Norte 0 929.7 0 96
2019-12-13 03:00:00 9.3 35 Norte 62 Norte 0 929.8 -0.4 96
2019-12-13 02:00:00 8.8 45 Norte 69 Norte 0 929.5 -0.7 97
2019-12-13 01:00:00 8.5 44 Norte 69 Norte 0 929.7 -1 97
2019-12-13 00:00:00 8.1 47 Norte 68 Noroeste 0 930.2 -0.8 96
2019-12-12 23:00:00 7.9 46 Norte 65 Norte 0 930.2 -1 95
2019-12-12 22:00:00 7.7 45 Norte 68 Norte 0.2 930.7 -0.8 95
2019-12-12 21:00:00 7.6 42 Norte 68 Norte 0 931 -1 93
2019-12-12 20:00:00 7.3 40 Noroeste 61 Norte 0 931.2 -1.4 93
2019-12-12 19:00:00 7 39 Noroeste 59 Norte 0 931.5 -1.6 92
2019-12-12 18:00:00 6.6 36 Norte 54 Noroeste 0 932 -1.5 91
2019-12-12 17:00:00 6.3 37 Noroeste 54 Noroeste 0.4 932.6 -1.3 92
2019-12-12 16:00:00 6.6 31 Norte 55 Norte 0.2 933.1 -2.6 92
2019-12-12 15:00:00 7.5 40 Norte 53 Norte 0 933.5 -3.4 81
2019-12-12 14:00:00 6.9 30 Noroeste 41 Norte 0 933.9 -3.8 82
2019-12-12 13:00:00 6.2 28 Norte 41 Norte 0 935.7 -1.7 82
2019-12-12 12:00:00 5.8 26 Norte 40 Norte 0 936.9 -0.3 81
2019-12-12 11:00:00 4.2 28 Norte 38 Norte 0 937.7 0.2 88
2019-12-12 10:00:00 2.1 22 Norte 29 Norte 0 937.4 -0.2 96
2019-12-12 09:00:00 0.8 15 Norte 27 Norte 0 937.2 -0.4 98
2019-12-12 08:00:00 1.1 19 Norte 27 Norte 0 937.5 -0.5 99
2019-12-12 07:00:00 2.1 24 Norte 31 Norte 0 937.6 -1.3 99
2019-12-12 06:00:00 2.5 12 Norte 18 Norte 0 937.6 -1.7 99
2019-12-12 05:00:00 2.2 13 Norte 19 Norte 0 938 -1 99
2019-12-12 04:00:00 1.7 12 Nordeste 21 Norte 0 938.9 -0.5 98
2019-12-12 03:00:00 1 16 Norte 24 Norte 0 939.3 -0.3 97
2019-12-12 02:00:00 1 18 Norte 26 Norte 0 939 -0.9 93
2019-12-12 01:00:00 1.6 23 Norte 30 Norte 0 939.4 -0.2 92
2019-12-12 00:00:00 1.4 9 Noroeste 22 Norte 0 939.6 0 91
2019-12-11 23:00:00 1.6 5 Noroeste 16 Norte 0 939.9 0.5 93
2019-12-11 22:00:00 2.3 7 Norte 19 Norte 0 939.6 0.7 98
2019-12-11 21:00:00 2.8 13 Norte 18 Norte 0 939.6 1.3 97
2019-12-11 20:00:00 3.3 8 Noroeste 18 Norte 0 939.4 1.5 96
2019-12-11 19:00:00 3.7 14 Norte 31 Nordeste 0 938.9 1.3 93
2019-12-11 18:00:00 5.4 23 Norte 34 Norte 0 938.3 1.2 87
2019-12-11 17:00:00 7 22 Norte 40 Nordeste 0 937.9 1.1 82
2019-12-11 16:00:00 7.2 23 Norte 34 Norte 0 937.6 0 86
2019-12-11 15:00:00 6.7 24 Norte 37 Norte 0 937.1 -1 85
2019-12-11 14:00:00 6.6 27 Norte 37 Norte 0 936.8 -1.5 82
2019-12-11 13:00:00 6.4 25 Norte 36 Norte 0 937.6 -0.6 81
2019-12-11 12:00:00 6.4 27 Norte 37 Norte 0 938.1 -0.1 83
2019-12-11 11:00:00 4.5 15 Norte 24 Norte 0 938.3 0.3 90
2019-12-11 10:00:00 2.8 13 Norte 19 Norte 0 938.2 0.5 98
2019-12-11 09:00:00 -0.3 10 Norte 15 Norte 0 938.2 0.2 99
2019-12-11 08:00:00 -0.7 6 Norte 9 Norte 0 938 -0.6 99
2019-12-11 07:00:00 -0.8 0 Calma 10 Norte 0 937.7 -1.1 98
2019-12-11 06:00:00 -1.5 6 Este 9 Nordeste 0 938 -1.4 98
2019-12-11 05:00:00 -1.1 5 Norte 10 Nordeste 0 938.6 -1.1 98
2019-12-11 04:00:00 -1.6 3 Este 5 Este 0 938.8 -1.3 98
2019-12-11 03:00:00 -1.2 4 Este 6 Este 0 939.4 -1.1 98
2019-12-11 02:00:00 -0.5 2 Nordeste 5 Sudeste 0 939.7 -0.8 97
2019-12-11 01:00:00 0.7 0 Calma 6 Oeste 0 940.1 -0.6 97
2019-12-11 00:00:00 1.9 3 Oeste 14 Nordeste 0 940.5 -0.4 96
2019-12-10 23:00:00 3.3 11 Norte 15 Nordeste 0 940.5 -0.6 97
2019-12-10 22:00:00 3.4 9 Norte 20 Norte 0 940.7 -0.2 97
2019-12-10 21:00:00 2.4 10 Norte 19 Norte 0 940.9 0.3 96
2019-12-10 20:00:00 3.7 17 Norte 21 Norte 0 941.1 0.4 95
2019-12-10 19:00:00 4.8 15 Norte 21 Norte 0 940.9 -0.1 90
2019-12-10 18:00:00 6.5 14 Norte 21 Norte 0 940.6 -0.8 86
2019-12-10 17:00:00 9.7 18 Norte 29 Norte 0 940.7 -1.3 76
2019-12-10 16:00:00 9.7 24 Norte 33 Norte 0 941 -1.5 76
2019-12-10 15:00:00 9.1 23 Norte 31 Norte 0 941.4 -2.1 78
2019-12-10 14:00:00 8 23 Norte 30 Norte 0 942 -2.3 82
2019-12-10 13:00:00 6.7 21 Norte 28 Norte 0 942.5 -1.1 86
2019-12-10 12:00:00 4 17 Norte 22 Norte 0 943.5 -0.1 99
2019-12-10 11:00:00 2.3 13 Norte 29 Norte 0 944.3 0.6 99
2019-12-10 10:00:00 1.6 23 Norte 31 Norte 0 943.6 0 99
2019-12-10 09:00:00 0 19 Norte 30 Norte 0 943.6 0.1 99
2019-12-10 08:00:00 -0.6 23 Norte 29 Norte 0 943.7 -0.2 99
2019-12-10 07:00:00 0.3 23 Norte 30 Norte 0 943.6 0 99
2019-12-10 06:00:00 0 20 Norte 31 Norte 0 943.5 -0.4 99
2019-12-10 05:00:00 -0.1 23 Norte 29 Norte 0 943.9 -0.3 98
2019-12-10 04:00:00 -0.8 20 Norte 26 Norte 0 943.6 -1.1 97
2019-12-10 03:00:00 1.2 17 Norte 22 Norte 0 943.9 -1 97
2019-12-10 02:00:00 2.4 17 Norte 22 Norte 0 944.2 -0.3 98
2019-12-10 01:00:00 3 18 Norte 21 Norte 0 944.7 0 97
2019-12-10 00:00:00 2.6 8 Norte 17 Norte 0 944.9 0.7 92
2019-12-09 23:00:00 3.5 14 Norte 20 Norte 0 944.5 0.4 94
2019-12-09 22:00:00 4.8 11 Norte 24 Nordeste 0 944.7 1.3 89
2019-12-09 21:00:00 7.3 21 Nordeste 27 Nordeste 0 944.2 1.4 77
2019-12-09 20:00:00 6.3 6 Norte 23 Nordeste 0 944.1 1.7 92
2019-12-09 19:00:00 7.7 17 Nordeste 23 Nordeste 0 943.4 0.7 90
2019-12-09 18:00:00 8.6 15 Norte 25 Norte 0 942.8 0.1 86
2019-12-09 17:00:00 10.1 22 Norte 29 Norte 0 942.4 -0.5 79
2019-12-09 16:00:00 10.5 20 Norte 32 Norte 0 942.7 -0.9 71
2019-12-09 15:00:00 9.8 21 Norte 34 Norte 0 942.7 -1.6 75
2019-12-09 14:00:00 8.7 27 Norte 37 Norte 0 942.9 -1.7 81
2019-12-09 13:00:00 7.4 24 Norte 36 Norte 0 943.6 -0.7 89
2019-12-09 12:00:00 6.6 22 Norte 33 Norte 0 944.3 0.5 94
2019-12-09 11:00:00 6 17 Norte 26 Norte 0 944.6 1.6 94
2019-12-09 10:00:00 5.6 15 Nordeste 25 Nordeste 0 944.3 1.8 95
2019-12-09 09:00:00 5.8 15 Nordeste 27 Norte 0 943.8 1.6 97
2019-12-09 08:00:00 6 12 Norte 22 Norte 0 943 0.9 97
2019-12-09 07:00:00 6.1 9 Norte 19 Norte 0 942.5 0.2 98
2019-12-09 06:00:00 6.3 10 Nordeste 24 Nordeste 0 942.2 0.7 98
2019-12-09 05:00:00 6.5 12 Norte 22 Norte 0 942.1 1.1 99
2019-12-09 04:00:00 7 16 Nordeste 28 Norte 0 942.3 1 99
2019-12-09 03:00:00 7.3 18 Norte 28 Norte 0 941.5 -0.2 99
2019-12-09 02:00:00 7.4 17 Norte 26 Norte 0 941 -0.4 98
2019-12-09 01:00:00 7.3 14 Norte 21 Norte 0 941.3 0.4 98
2019-12-09 00:00:00 7.3 10 Norte 17 Norte 0.2 941.7 1.1 99
2019-12-08 23:00:00 7.1 12 Norte 20 Noroeste 0 941.4 0.8 99
2019-12-08 22:00:00 7 14 Norte 21 Norte 0 940.9 0.6 98
2019-12-08 21:00:00 6.9 12 Norte 21 Norte 0 940.6 0.5 98
2019-12-08 20:00:00 6.8 14 Norte 21 Norte 0.2 940.6 0.8 98
2019-12-08 19:00:00 6.9 12 Norte 21 Norte 0 940.3 0.6 97
2019-12-08 18:00:00 7 17 Norte 22 Norte 0 940.1 0.5 97
2019-12-08 17:00:00 7.6 15 Norte 26 Norte 0 939.8 -0.2 96
2019-12-08 16:00:00 7.2 20 Norte 26 Norte 0 939.7 -1.1 98
2019-12-08 15:00:00 6.7 16 Norte 23 Norte 0 939.6 -2 99
2019-12-08 14:00:00 5.5 10 Norte 19 Norte 0 940 -1.5 99
2019-12-08 13:00:00 5.1 12 Norte 19 Norte 0 940.8 -0.6 99
2019-12-08 12:00:00 4.6 12 Norte 19 Norte 0 941.6 0.7 99
2019-12-08 11:00:00 4.1 12 Norte 20 Norte 0 941.5 1 99
2019-12-08 10:00:00 3.7 16 Norte 22 Norte 0 941.4 1.3 99
2019-12-08 09:00:00 3.9 13 Norte 21 Norte 0 940.9 1.3 99
2019-12-08 08:00:00 4.2 12 Norte 22 Norte 0 940.5 0.6 99
2019-12-08 07:00:00 4.2 13 Norte 23 Norte 0 940.1 0.1 99
2019-12-08 06:00:00 4.1 12 Norte 19 Norte 0 939.6 -0.8 99
2019-12-08 05:00:00 4 13 Norte 19 Norte 0 939.9 -0.4 99
2019-12-08 04:00:00 4 12 Norte 21 Norte 0 940 -0.7 99
2019-12-08 03:00:00 4 14 Norte 19 Norte 0 940.4 -0.5 99
2019-12-08 02:00:00 4.5 11 Norte 18 Norte 0 940.3 -0.3 99
2019-12-08 01:00:00 4.8 12 Norte 18 Norte 0 940.7 0.5 99
2019-12-08 00:00:00 5 10 Norte 20 Norte 0 940.9 1 98
2019-12-07 23:00:00 5.2 13 Norte 27 Norte 0 940.6 1 98
2019-12-07 22:00:00 5.6 21 Norte 28 Norte 0 940.2 1 98
2019-12-07 21:00:00 5.4 17 Norte 21 Norte 0 939.9 1.2 97
2019-12-07 20:00:00 6.1 15 Norte 17 Norte 0 939.6 1.2 97
2019-12-07 19:00:00 7.7 15 Norte 17 Norte 0 939.2 1.3 95
2019-12-07 18:00:00 9.3 13 Norte 17 Norte 0 938.7 0.9 88
2019-12-07 17:00:00 11.8 13 Norte 17 Norte 0 938.4 0.2 78
2019-12-07 16:00:00 12.5 6 Norte 11 Noroeste 0 937.9 -1.1 71
2019-12-07 15:00:00 11.9 5 Norte 9 Norte 0 937.8 -1.9 74
2019-12-07 14:00:00 11.4 3 Noroeste 8 Oeste 0 938.2 -1.7 74
2019-12-07 13:00:00 10.7 3 Oeste 8 Oeste 0 939 -0.3 76
2019-12-07 12:00:00 9.1 7 Oeste 10 Oeste 0 939.7 0.8 82
2019-12-07 11:00:00 7.7 4 Este 8 Este 0 939.9 1.1 82
2019-12-07 10:00:00 5.1 7 Sudeste 15 Este 0 939.3 0.8 97
2019-12-07 09:00:00 3.4 10 Sudeste 20 Este 0 938.9 0.6 98
2019-12-07 08:00:00 4.4 9 Sudeste 19 Sudeste 0 938.8 0.4 98
2019-12-07 07:00:00 4 9 Este 22 Este 0 938.5 -0.1 98
2019-12-07 06:00:00 3.2 9 Este 12 Este 0 938.3 -0.3 97
2019-12-07 05:00:00 3.8 5 Sur 14 Este 0 938.4 0 97
2019-12-07 04:00:00 5.1 7 Sudeste 14 Sudeste 0 938.6 0 97
2019-12-07 03:00:00 4.7 10 Este 13 Sudeste 0 938.6 -0.1 97
2019-12-07 02:00:00 4.9 9 Sudeste 15 Sudeste 0 938.4 0.1 97
2019-12-07 01:00:00 5.8 10 Sudeste -- -- 0 938.6 0.4 98
2019-12-07 00:00:00 4.4 5 Sur 13 Este 0 938.7 0.7 95
2019-12-06 23:00:00 5.3 8 Sur 14 Sur 0 938.3 0.3 94
2019-12-06 22:00:00 6.1 12 Sur 17 Sudeste 0 938.2 0.6 92
2019-12-06 21:00:00 7.1 10 Sudeste 17 Sudeste 0 938 0.6 89
2019-12-06 20:00:00 8.5 10 Sur -- -- 0 938 0.7 85
2019-12-06 19:00:00 9.7 14 Sur 21 Sur 0 937.6 0.5 78
2019-12-06 18:00:00 9.7 13 Sur 22 Sur 0 937.4 0.7 83
2019-12-06 17:00:00 10.2 15 Sur 23 Sur 0 937.3 0.5 80
2019-12-06 16:00:00 10.7 17 Sur 27 Sur 0 937.1 -0.9 77
2019-12-06 15:00:00 11.5 -- -- -- -- 0 936.7 -1.9 73
2019-12-06 14:00:00 10.8 18 Sur -- -- 0 936.8 -2.1 76
2019-12-06 13:00:00 9.9 -- -- -- -- 0 938 -0.3 80
2019-12-06 12:00:00 9.4 15 Sur 30 Sur 0 938.6 0.5 80
2019-12-06 11:00:00 9.3 19 Sur 28 Sur 0 938.9 1.4 81
2019-12-06 10:00:00 7.7 14 Sur 21 Sur 0 938.3 1.3 92
2019-12-06 09:00:00 4.8 5 Sudeste 9 Este 0 938.1 1.5 97
2019-12-06 08:00:00 4.2 4 Este 12 Sudeste 0 937.5 0.9 94
2019-12-06 07:00:00 6 10 Sudeste 23 Sur 0 937 0.4 93
2019-12-06 06:00:00 6.5 10 Sur 16 Sudoeste 0 936.6 0.2 94
2019-12-06 05:00:00 6 5 Sudeste 13 Sudeste 0 936.6 0.3 94
2019-12-06 04:00:00 6.3 4 Sur 17 Sudeste 0 936.6 0.1 95
2019-12-06 03:00:00 6.1 10 Sudeste 20 Sur 0 936.4 -0.4 94
2019-12-06 02:00:00 7.3 13 Sur -- -- 0 936.3 0.1 92
2019-12-06 01:00:00 7.3 14 Sur 23 Sur 0 936.5 0.6 94
2019-12-06 00:00:00 8 12 Sur 31 Sur 0 936.8 1.2 93
2019-12-05 23:00:00 8.4 15 Sur 26 Sur 0 936.2 1 92
2019-12-05 22:00:00 8.3 17 Sur 24 Sur 0 935.9 1.3 93
2019-12-05 21:00:00 8 15 Sur 23 Sur 0 935.6 1.5 94
2019-12-05 20:00:00 8 13 Sur 24 Sudeste 0 935.2 1.9 93
2019-12-05 19:00:00 8.3 19 Sudeste 31 Sur 0 934.6 1.6 94
2019-12-05 18:00:00 8.5 19 Sur 28 Sur 0 934.1 1.5 93
2019-12-05 17:00:00 9 18 Sur 25 Sur 0 933.3 0.9 91
2019-12-05 16:00:00 9.1 18 Sur 32 Sur 0.4 933 0.6 91
2019-12-05 15:00:00 10.1 22 Sur 34 Sur 0 932.6 0.1 84
2019-12-05 14:00:00 11.4 20 Sur 39 Sur 0 932.4 0.4 73
2019-12-05 13:00:00 9.4 27 Sur 47 Sur 0 932.4 1.1 80
2019-12-05 12:00:00 10.9 27 Sur 42 Sur 0 932.5 2.1 76
2019-12-05 11:00:00 9.9 26 Sur 43 Sur 0 932 2.2 75
2019-12-05 10:00:00 7.9 22 Sudeste 31 Sudeste 0 931.3 2.2 80
2019-12-05 09:00:00 6.5 14 Sudeste 20 Sudeste 0 930.4 2 88
2019-12-05 08:00:00 6 12 Sudeste 19 Este 0 929.8 1.7 89
2019-12-05 07:00:00 6 9 Sudeste 18 Sudeste 0 929.1 1.1 90
2019-12-05 06:00:00 6.2 9 Este 15 Este 0.2 928.4 0.7 88
2019-12-05 05:00:00 6.3 8 Este 13 Este 0 928.1 0.9 90
2019-12-05 04:00:00 6.4 4 Este 9 Nordeste 0.2 928 1.1 92
2019-12-05 03:00:00 6.4 5 Nordeste 8 Este 0.6 927.7 1.2 95
2019-12-05 02:00:00 6.5 4 Sudeste -- -- 0 927.2 1.1 96
2019-12-05 01:00:00 6.5 0 Calma -- -- 0.2 926.9 1.1 96
2019-12-05 00:00:00 6.8 4 Noroeste -- -- 0 926.5 1.1 96
2019-12-04 23:00:00 6.7 3 Norte -- -- 0.2 926.1 1.5 96
2019-12-04 22:00:00 7 -- -- -- -- 0.2 925.8 1.6 98
2019-12-04 21:00:00 7.4 7 Norte 9 Norte 0 925.4 1.7 98
2019-12-04 20:00:00 7.3 6 Noroeste 8 Noroeste 0 924.6 1.4 97
2019-12-04 19:00:00 8.1 7 Noroeste 12 Noroeste 0 924.2 1.3 96
2019-12-04 18:00:00 8.4 11 Noroeste 14 Noroeste 0 923.7 1.1 96
2019-12-04 17:00:00 8.6 9 Noroeste 15 Norte 0 923.2 0.6 94
2019-12-04 16:00:00 8.7 12 Noroeste 15 Norte 0.2 922.9 -0.1 93
2019-12-04 15:00:00 8.4 13 Norte 18 Norte 0 922.6 -1.2 89
2019-12-04 14:00:00 8.4 10 Norte 16 Nordeste 0 922.6 -1.3 87
2019-12-04 13:00:00 7.9 9 Nordeste -- -- 0.2 923 -1.1 89
2019-12-04 12:00:00 6.9 -- -- -- -- 0.8 923.8 0.1 91
2019-12-04 11:00:00 6.5 25 Nordeste 37 Nordeste 0.2 923.9 -0.2 91
2019-12-04 10:00:00 6.4 9 Norte 24 Nordeste 0.8 924.1 -0.2 93
2019-12-04 09:00:00 6.4 13 Nordeste -- -- 0 923.7 -0.8 91
2019-12-04 08:00:00 6.1 9 Nordeste 18 Este 0.4 924.1 -0.9 92
2019-12-04 07:00:00 6.1 9 Este 17 Este 0 924.3 -1.5 89
2019-12-04 06:00:00 6.2 12 Este 22 Este 0 924.5 -1.9 89
2019-12-04 05:00:00 6.6 12 Nordeste 20 Este 0 925 -2 86
2019-12-04 04:00:00 6.6 10 Este -- -- 0 925.8 -1.9 88
2019-12-04 03:00:00 6.3 7 Norte 14 Este 0.2 926.4 -2.3 90
2019-12-04 02:00:00 6 7 Este 21 Este 0 927 -2.1 89
2019-12-04 01:00:00 5.7 10 Este 19 Este 0.4 927.7 -1.8 91
2019-12-04 00:00:00 5.8 8 Este 14 Este 0 928.7 -0.7 91
2019-12-03 23:00:00 6 10 Sudeste 14 Sudeste 0 929.1 -0.2 86
2019-12-03 22:00:00 5.7 5 Sudeste 16 Sudoeste 0.2 929.5 0.3 93
2019-12-03 21:00:00 5.9 10 Sudoeste 19 Sudoeste 0 929.4 0.1 90
2019-12-03 20:00:00 6.1 11 Sudoeste 19 Sudoeste 0 929.3 0.3 88
2019-12-03 19:00:00 6.4 9 Sur 24 Sur 0 929.2 0.4 86
2019-12-03 18:00:00 6.8 19 Sur 35 Sur 0 929.3 0.6 84
2019-12-03 17:00:00 7.3 16 Sur 25 Sur 0 929 0 82
2019-12-03 16:00:00 7.5 18 Sur 30 Sur 0 928.8 -0.6 80
2019-12-03 15:00:00 7.7 19 Sur 32 Sur 0 928.7 -1.8 82
2019-12-03 14:00:00 7.8 19 Sur 32 Sur 0 929 -1.9 81
2019-12-03 13:00:00 7.6 19 Sur 32 Sudeste 0 929.4 -1.4 81
2019-12-03 12:00:00 7.3 19 Sur 33 Sudeste 0 930.5 -0.3 82
2019-12-03 11:00:00 7.2 19 Sur 33 Sur 0 930.9 0.3 81
2019-12-03 10:00:00 6.7 19 Sur 31 Sur 0 930.8 0.4 85
2019-12-03 09:00:00 5.7 11 Sudeste 19 Sudeste 0.2 930.8 0.6 88
2019-12-03 08:00:00 5.8 10 Sudeste 21 Sudeste 0 930.6 0.1 81
2019-12-03 07:00:00 6.1 15 Sudeste 24 Sudeste 0 930.4 -0.4 83
2019-12-03 06:00:00 6.5 14 Sudeste 30 Sudeste 0 930.2 -1.1 86
2019-12-03 05:00:00 6.1 17 Sur 28 Sudeste 0 930.5 -1 89
2019-12-03 04:00:00 6.4 17 Sudeste 25 Sudeste 0.2 930.8 -1 87
2019-12-03 03:00:00 6.6 16 Sur 24 Sudeste 0.4 931.3 -0.9 86
2019-12-03 02:00:00 6.8 14 Sudeste 23 Sudeste 0 931.5 -0.7 83
2019-12-03 01:00:00 6.3 9 Sur 14 Sudeste 0 931.8 -0.1 87
2019-12-03 00:00:00 6.8 11 Sur 22 Sur 0 932.2 0.4 81
2019-12-02 23:00:00 7.1 14 Sur 25 Sudeste 0 932.2 0.8 80
2019-12-02 22:00:00 7.2 15 Sur 21 Sur 0 931.9 1.4 79
2019-12-02 21:00:00 7.3 9 Sudeste 20 Sudeste 0 931.8 1.5 80
2019-12-02 20:00:00 8.2 9 Sur 20 Sudeste 0 931.4 1.3 80
2019-12-02 19:00:00 8.3 14 Sudeste 32 Sudeste 0 930.5 0.9 78
2019-12-02 18:00:00 8.9 21 Sur 37 Sur 0 930.3 1 75
2019-12-02 17:00:00 9.4 21 Sur 45 Sur 0 930.1 0.7 76
2019-12-02 16:00:00 9.7 27 Sur 48 Sur 0 929.6 0.1 73
2019-12-02 15:00:00 9.9 32 Sur 54 Sur 0 929.3 -0.8 75
2019-12-02 14:00:00 9.6 36 Sur 57 Sur 0 929.4 -0.5 76
2019-12-02 13:00:00 9.2 32 Sur 50 Sur 0.2 929.5 0.1 82
2019-12-02 12:00:00 8.6 24 Sur 39 Sur 0 930.1 0.8 80
2019-12-02 11:00:00 7.1 20 Sudeste 32 Sudeste 0 929.9 1 83
2019-12-02 10:00:00 6.7 18 Sudeste 25 Sudeste 0.2 929.4 1.1 85
2019-12-02 09:00:00 6.3 9 Sudeste 18 Sur 0.8 929.3 1.6 93
2019-12-02 08:00:00 6.2 12 Sur 18 Sur 2 928.9 1.5 93
2019-12-02 07:00:00 6.9 8 Sur 15 Sur 0.2 928.3 1.1 87
2019-12-02 06:00:00 7.4 8 Sur 23 Sur 0 927.7 0.7 83
2019-12-02 05:00:00 7.8 14 Sur 29 Sur 0 927.4 0.4 83
2019-12-02 04:00:00 7.7 16 Sur 32 Sur 0 927.2 0.1 85
2019-12-02 03:00:00 7.6 22 Sur 33 Sur 0 927 -0.1 86
2019-12-02 02:00:00 7.8 15 Sur 34 Sur 0 927 -0.2 89
2019-12-02 01:00:00 8.1 15 Sur 24 Sur 0 927.1 0 80
2019-12-02 00:00:00 8.1 5 Este 15 Sur 0 927.1 -0.2 86
2019-12-01 23:00:00 8.1 5 Nordeste 14 Sur 0 927.2 0 88
2019-12-01 22:00:00 8.3 7 Sur 15 Sur 0 927.1 0.2 83
2019-12-01 21:00:00 8.2 6 Sur 12 Sudoeste 0 927.3 0.8 86
2019-12-01 20:00:00 8.5 6 Sudeste 11 Sudeste 0 927.2 0.5 87
2019-12-01 19:00:00 9 6 Sudeste 13 Sudeste 0 926.9 0 81
2019-12-01 18:00:00 9.7 2 Oeste 8 Sudeste 0 926.5 -0.8 72
2019-12-01 17:00:00 10.2 4 Sudeste 8 Sur 0 926.7 -0.9 68
2019-12-01 16:00:00 10.6 3 Sudeste 24 Noroeste 0.2 926.9 -1.4 64
2019-12-01 15:00:00 10.6 11 Norte 16 Norte 0 927.3 -1.8 63
2019-12-01 14:00:00 11 8 Norte 21 Noroeste 0 927.6 -2 61
2019-12-01 13:00:00 10.5 6 Noroeste 17 Noroeste 0 928.3 -1.4 67
2019-12-01 12:00:00 10 10 Norte 22 Norte 0 929.1 -0.7 72
2019-12-01 11:00:00 8.7 16 Norte 28 Norte 0 929.6 0.2 83
2019-12-01 10:00:00 7 20 Norte 26 Norte 0 929.7 0.8 94
2019-12-01 09:00:00 6.4 15 Norte 24 Norte 0 929.8 0.7 98
2019-12-01 08:00:00 6.5 15 Norte 24 Norte 0 929.4 0 97
2019-12-01 07:00:00 7.2 13 Norte 18 Norte 0 928.9 -0.8 93
2019-12-01 06:00:00 7.6 7 Norte 15 Norte 0 929.1 -0.5 94
2019-12-01 05:00:00 7.9 11 Norte 21 Nordeste 0.2 929.4 -0.3 95
2019-12-01 04:00:00 8.3 17 Nordeste 26 Norte 0.4 929.7 -0.7 93
2019-12-01 03:00:00 9.3 18 Nordeste 37 Noroeste 0.8 929.6 -1.3 94
2019-12-01 02:00:00 10.5 24 Noroeste 45 Noroeste 0 929.7 -1.9 95
2019-12-01 01:00:00 11.1 26 Noroeste 38 Noroeste 0 930.4 -2 86
2019-12-01 00:00:00 11.2 16 Oeste 26 Noroeste 0 930.9 -1.5 85
2019-11-30 23:00:00 10.8 18 Noroeste 27 Noroeste 0 931.6 -1.2 85
2019-11-30 22:00:00 9.8 8 Noroeste 19 Noroeste 0 932.4 -0.6 86
2019-11-30 21:00:00 10 11 Oeste 18 Oeste 0 932.4 -0.8 85
2019-11-30 20:00:00 10.1 12 Noroeste 17 Noroeste 0 932.8 -0.3 85
2019-11-30 19:00:00 10.5 12 Noroeste 25 Norte 0 933 -0.6 84
2019-11-30 18:00:00 11.6 21 Norte 34 Norte 0 933.2 -0.9 80
2019-11-30 17:00:00 13 22 Norte 39 Norte 0 933.1 -1.8 74
2019-11-30 16:00:00 13.3 28 Norte 38 Norte 0 933.6 -2.1 75
2019-11-30 15:00:00 13.7 21 Norte 36 Norte 0 934.1 -2.6 77
2019-11-30 14:00:00 14.7 16 Norte 24 Norte 0 934.9 -2.2 74
2019-11-30 13:00:00 13.9 18 Norte 24 Norte 0 935.7 -1.5 77
2019-11-30 12:00:00 12.8 15 Norte 23 Norte 0 936.7 -0.2 81
2019-11-30 11:00:00 12.8 13 Norte 21 Norte 0 937.1 0.2 80
2019-11-30 10:00:00 11 7 Norte 10 Norte 0 937.2 0.2 87
2019-11-30 09:00:00 10 3 Oeste 6 Sudoeste 0 936.9 -0.3 94
2019-11-30 08:00:00 9.8 3 Sudoeste 4 Nordeste 0 936.9 -0.2 94
2019-11-30 07:00:00 10 2 Noroeste 9 Norte 0 937 -0.2 93
2019-11-30 06:00:00 10 5 Norte 8 Norte 0 937.2 -0.5 92
2019-11-30 05:00:00 10 3 Norte 8 Noroeste 0 937.1 -0.7 93
2019-11-30 04:00:00 10 7 Noroeste 9 Noroeste 0 937.2 -0.9 92
2019-11-30 03:00:00 9.9 3 Norte 6 Noroeste 0 937.7 -0.3 93
2019-11-30 02:00:00 9.8 4 Norte 10 Norte 0 937.8 -0.1 94
2019-11-30 01:00:00 9.6 9 Norte 11 Norte 0 938.1 0.1 95
2019-11-30 00:00:00 9.2 4 Norte 14 Norte 0 938 0 93
2019-11-29 23:00:00 10.4 8 Norte 13 Norte 0 937.9 0.1 91
2019-11-29 22:00:00 10.9 6 Noroeste 9 Noroeste 0 938 0.4 91
2019-11-29 21:00:00 11.2 6 Noroeste 19 Norte 0 938 0.7 90
2019-11-29 20:00:00 11.5 15 Norte 20 Norte 0 937.8 0.5 92
2019-11-29 19:00:00 11.8 14 Norte 22 Norte 0 937.6 0.7 91
2019-11-29 18:00:00 12.1 19 Norte 27 Norte 0 937.3 0.6 87
2019-11-29 17:00:00 12.5 20 Norte 29 Norte 0 937.3 0.3 87
2019-11-29 16:00:00 12.2 21 Norte 33 Norte 0 936.9 -0.1 89
2019-11-29 15:00:00 12.5 21 Norte 30 Norte 0 936.7 -1 86
2019-11-29 14:00:00 12.8 22 Norte 36 Noroeste 0 937 -0.7 84
2019-11-29 13:00:00 13 25 Norte 33 Noroeste 0 937 0 84
2019-11-29 12:00:00 12.6 26 Norte 35 Norte 0 937.7 1.2 85
2019-11-29 11:00:00 11.5 23 Norte 35 Noroeste 0 937.7 1.7 91
2019-11-29 10:00:00 10.9 22 Norte 33 Norte 0 937 1.3 90
2019-11-29 09:00:00 10.4 23 Norte 33 Norte 0 936.5 1.1 89
2019-11-29 08:00:00 10 21 Norte 30 Norte 0 936 1 89
2019-11-29 07:00:00 10 18 Norte 28 Noroeste 0 935.7 0.6 88
2019-11-29 06:00:00 9.8 17 Norte 25 Noroeste 0 935.4 0.3 88
2019-11-29 05:00:00 9.7 17 Norte 24 Norte 0 935 0.3 86
2019-11-29 04:00:00 8.8 10 Norte 18 Noroeste 0 935.1 0.3 90
2019-11-29 03:00:00 8.3 6 Norte 12 Norte 0 935.1 0.3 90
2019-11-29 02:00:00 7 5 Este 15 Norte 0 934.7 -0.1 93
2019-11-29 01:00:00 7.5 11 Norte 17 Noroeste 0 934.8 0.4 92
2019-11-29 00:00:00 7.2 4 Norte 17 Norte 0 934.8 0.4 92
2019-11-28 23:00:00 8.1 13 Norte 29 Noroeste 0 934.8 0.8 89
2019-11-28 22:00:00 9 20 Noroeste 30 Norte 0 934.4 0.8 86
2019-11-28 21:00:00 9.6 18 Norte 28 Noroeste 0 934.4 0.7 86
2019-11-28 20:00:00 9.1 17 Noroeste 25 Noroeste 0 934 0.5 91
2019-11-28 19:00:00 8.6 17 Noroeste 26 Noroeste 0 933.6 -0.2 95
2019-11-28 18:00:00 8.6 17 Noroeste 36 Noroeste 0 933.7 0 92
2019-11-28 17:00:00 10 23 Noroeste 33 Noroeste 0 933.5 -1 84
2019-11-28 16:00:00 10.3 22 Norte 33 Norte 0 933.8 -1.1 83
2019-11-28 15:00:00 9.6 20 Norte 29 Norte 0 933.7 -1.7 90
2019-11-28 14:00:00 9 19 Norte 28 Norte 0 934.5 -1.1 91
2019-11-28 13:00:00 9.1 19 Norte 34 Noroeste 0 934.9 -0.2 86
2019-11-28 12:00:00 9.4 22 Noroeste 33 Noroeste 0 935.4 1.1 86
2019-11-28 11:00:00 8.5 17 Noroeste 23 Noroeste 0 935.6 2.1 92
2019-11-28 10:00:00 7.2 10 Norte 18 Norte 0 935.1 2.3 98
2019-11-28 09:00:00 6.6 6 Norte 11 Norte 0 934.3 1.9 98
2019-11-28 08:00:00 5.7 8 Norte 16 Norte 0 933.5 1.2 98
2019-11-28 07:00:00 4.7 11 Norte 17 Norte 0 932.8 0.8 97
2019-11-28 06:00:00 5.1 12 Nordeste 19 Norte 0 932.4 0.2 97
2019-11-28 05:00:00 5.3 13 Nordeste 18 Norte 0 932.3 0.5 97
2019-11-28 04:00:00 5.9 11 Norte 16 Norte 0 932 -0.1 95
2019-11-28 03:00:00 6.4 9 Norte 14 Norte 0 932.2 0.4 96
2019-11-28 02:00:00 5.3 7 Norte 11 Norte 0 931.8 0.3 95
2019-11-28 01:00:00 6.4 8 Norte 17 Norte 0 932.1 0.6 93
2019-11-28 00:00:00 6.9 10 Norte 22 Norte 0 931.8 0.7 92
2019-11-27 23:00:00 7.6 15 Norte 26 Norte 0 931.5 1 89
2019-11-27 22:00:00 8.5 17 Noroeste 27 Norte 0 931.5 1.2 86
2019-11-27 21:00:00 8.9 18 Norte 27 Norte 0 931.1 1.3 88
2019-11-27 20:00:00 9.2 18 Norte 25 Norte 0 930.5 1 84
2019-11-27 19:00:00 10.3 18 Norte 30 Norte 0 930.3 0.9 78
2019-11-27 18:00:00 10.7 21 Norte 36 Noroeste 0 929.8 0.3 76
2019-11-27 17:00:00 11.6 26 Norte 47 Norte 0 929.5 -0.3 71
2019-11-27 16:00:00 12.2 26 Norte 40 Norte 0 929.4 -0.8 68
2019-11-27 15:00:00 12.1 26 Norte 40 Norte 0 929.5 -0.9 68
2019-11-27 14:00:00 12.8 22 Norte 39 Norte 0 929.8 -0.7 73
2019-11-27 06:00:00 10 23 Norte 33 Norte 0 927.5 0 93
2019-11-27 05:00:00 10 17 Norte 34 Norte 0 927.4 0.2 94
2019-11-27 04:00:00 10.4 25 Norte 41 Norte 0 927.3 -0.4 93
2019-11-27 03:00:00 11 26 Norte 46 Norte 0 927.5 -0.3 93
2019-11-27 02:00:00 11.9 34 Norte 57 Noroeste 0 927.2 -0.9 92
2019-11-27 01:00:00 11.7 30 Norte 47 Norte 0.6 927.7 -0.5 97
2019-11-27 00:00:00 11.9 29 Noroeste 46 Noroeste 0 927.8 -0.8 92
2019-11-26 23:00:00 12.1 18 Noroeste 28 Noroeste 0 928.1 -0.3 90
2019-11-26 22:00:00 12.1 16 Noroeste 27 Noroeste 0 928.2 -0.6 91
2019-11-26 21:00:00 12 18 Noroeste 33 Noroeste 1.2 928.6 -0.2 93
2019-11-26 20:00:00 12.8 18 Noroeste 32 Noroeste 0 928.4 -0.5 87
2019-11-26 19:00:00 12.7 10 Noroeste 25 Noroeste 0 928.8 -0.2 92
2019-11-26 18:00:00 13 18 Noroeste 26 Norte 0 928.8 -0.8 92
2019-11-26 17:00:00 13.6 15 Norte 31 Norte 0 928.9 -1.4 88
2019-11-26 16:00:00 14.2 21 Norte -- -- 0 929 -2.1 85
2019-11-26 15:00:00 13.6 22 Norte 34 Norte 0 929.6 -2.4 88
2019-11-26 14:00:00 12.9 24 Norte 37 Norte 0 930.3 -2.1 93
2019-11-26 13:00:00 12.7 19 Norte 27 Norte 0 931.1 -1.4 85
2019-11-26 12:00:00 11.7 18 Norte 26 Norte 0 932 -0.4 88
2019-11-26 11:00:00 11.5 18 Norte 27 Noroeste 0 932.4 0.7 88
2019-11-26 10:00:00 10.7 18 Norte 24 Norte 0 932.5 0.9 93
2019-11-26 09:00:00 9.9 8 Norte 17 Norte 0 932.4 0.8 92
2019-11-26 08:00:00 9.7 6 Noroeste 12 Noroeste 0 931.7 -0.1 92
2019-11-26 07:00:00 9.8 9 Norte 23 Norte 0 931.6 -0.4 97
2019-11-26 06:00:00 10.1 15 Norte 21 Norte 0 931.6 -0.9 97
2019-11-26 05:00:00 10.2 12 Norte 23 Norte 0 931.8 -0.8 97
2019-11-26 04:00:00 10.4 16 Norte 23 Norte 0 932 -0.9 96
2019-11-26 03:00:00 10.4 13 Norte 19 Norte 0 932.5 -0.5 95
2019-11-26 02:00:00 10.3 11 Norte 16 Norte 0 932.6 -0.8 96
2019-11-26 01:00:00 10 8 Norte 13 Norte 0 932.9 -0.2 97
2019-11-26 00:00:00 10.3 7 Norte 15 Norte 0 933 0.3 96
2019-11-25 23:00:00 10.4 9 Norte 14 Norte 0 933.4 0.9 95
2019-11-25 22:00:00 10.6 7 Norte 17 Norte 0 933.1 1 93
2019-11-25 21:00:00 10.9 2 Norte 7 Norte 0 932.7 1.2 95
2019-11-25 20:00:00 11.3 2 Norte 6 Norte 0 932.5 1.4 94
2019-11-25 19:00:00 11.6 6 Norte 13 Norte 0 932.1 1.2 93
2019-11-25 18:00:00 12.5 11 Norte 30 Norte 0 931.5 0.5 86
2019-11-25 17:00:00 13.4 20 Norte 36 Norte 0 931.1 -0.2 86
2019-11-25 16:00:00 12.7 24 Norte 35 Norte 0 930.9 -0.5 94
2019-11-25 15:00:00 12.3 26 Norte 39 Norte 0 931 -0.8 91
2019-11-25 14:00:00 11.6 26 Norte 40 Norte 0 931.3 -0.5 94
2019-11-25 13:00:00 11.3 27 Norte 42 Norte 0 931.4 -0.2 94
2019-11-25 12:00:00 10.6 27 Norte 40 Norte 0 931.8 0.4 97
2019-11-25 11:00:00 9.7 30 Norte 42 Norte 0 931.8 0.7 98
2019-11-25 10:00:00 9.3 28 Norte 42 Norte 0 931.6 0.8 97
2019-11-25 09:00:00 8.9 24 Norte 36 Norte 0.2 931.4 0.5 98
2019-11-25 08:00:00 8.6 21 Norte 36 Norte 0 931.1 0.1 97
2019-11-25 07:00:00 8 16 Norte 32 Norte 0 930.8 -0.2 97
2019-11-25 06:00:00 7.7 13 Norte 25 Norte 0.2 930.9 -0.4 97
2019-11-25 05:00:00 7.7 21 Norte 34 Norte 0 931 -0.6 97
2019-11-25 04:00:00 8.1 21 Noroeste 36 Noroeste 0 931 -1.4 89
2019-11-25 03:00:00 8.2 24 Noroeste 35 Norte 0 931.3 -1 87
2019-11-25 02:00:00 7.3 18 Norte 28 Norte 0 931.6 -0.6 90
2019-11-25 01:00:00 7 15 Norte 30 Noroeste 0 932.4 0 90
2019-11-25 00:00:00 5.7 15 Norte 26 Noroeste 0 932.3 0.1 96
2019-11-24 23:00:00 4.3 12 Norte 18 Norte 0 932.2 0.6 95
2019-11-24 22:00:00 4.2 8 Norte 16 Norte 0 932.4 0.9 94
2019-11-24 21:00:00 4.5 8 Norte 14 Norte 0 932.2 0.9 91
2019-11-24 20:00:00 5 8 Norte 12 Noroeste 0 931.6 0.8 87
2019-11-24 19:00:00 5.8 8 Noroeste 20 Norte 0 931.5 1 83
2019-11-24 18:00:00 6.9 15 Norte 30 Norte 0 931.3 0.8 81
2019-11-24 17:00:00 8.8 21 Norte 33 Norte 0 930.8 -0.1 69
2019-11-24 16:00:00 9.4 26 Norte 34 Norte 0 930.5 -1 64
2019-11-24 15:00:00 9.5 22 Norte 42 Norte 0 930.5 -1.3 62
2019-11-24 14:00:00 8.9 27 Norte 36 Norte 0 930.9 -1.2 69
2019-11-24 13:00:00 8.2 22 Norte 35 Norte 0 931.5 -0.5 75
2019-11-24 12:00:00 7.1 22 Norte 32 Norte 0 931.8 0.7 78
2019-11-24 11:00:00 5.8 24 Norte 33 Norte 0 932.1 1.9 86
2019-11-24 10:00:00 3.6 15 Norte 24 Norte 0 932 2.4 93
2019-11-24 09:00:00 1.9 18 Norte 24 Norte 0 931.1 2.3 96
2019-11-24 08:00:00 1 13 Norte 17 Norte 0 930.2 1.6 95
2019-11-24 07:00:00 1.1 12 Norte 16 Norte 0 929.6 1.4 95
2019-11-24 06:00:00 1.3 8 Norte 18 Norte 0 928.8 0.6 94
2019-11-24 05:00:00 1.9 7 Norte 17 Norte 0 928.6 1.1 93
2019-11-24 04:00:00 2.5 17 Norte 24 Norte 0 928.2 0.7 91
2019-11-24 03:00:00 2.4 11 Norte 32 Norte 0 928.2 1 89
2019-11-24 02:00:00 3.7 21 Norte 37 Nordeste 0 927.5 0.8 85
2019-11-24 01:00:00 3.2 19 Norte 31 Norte 0 927.5 0.9 89
2019-11-24 00:00:00 3.4 23 Norte 37 Norte 0 927.2 1.4 88
2019-11-23 23:00:00 4.8 23 Norte 32 Norte 0 926.7 1.9 83
2019-11-23 22:00:00 4.2 17 Norte 30 Norte 0 926.6 2.5 87
2019-11-23 21:00:00 5 16 Norte 28 Norte 0 925.8 2.7 83
2019-11-23 20:00:00 5.8 15 Norte 30 Norte 0 924.8 2.6 81
2019-11-23 19:00:00 6.9 24 Norte 34 Norte 0 924.1 2.9 76
2019-11-23 18:00:00 8.1 24 Norte 37 Norte 0 923.1 2.5 69
2019-11-23 17:00:00 9.8 27 Norte 53 Norte 0 922.2 1.8 60
2019-11-23 16:00:00 9.8 34 Norte 54 Norte 0 921.2 0.9 58
2019-11-23 15:00:00 10.2 35 Norte 58 Norte 0 920.6 0.7 55
2019-11-23 14:00:00 9.5 42 Norte 58 Norte 0 920.4 1.2 59
2019-11-23 13:00:00 9.1 33 Norte 57 Norte 0 920.3 3 69
2019-11-23 12:00:00 8.7 37 Norte 53 Norte 0 919.9 3.4 72
2019-11-23 11:00:00 7.6 30 Norte 56 Norte 0 919.2 4.4 77
2019-11-23 10:00:00 6.9 45 Norte 58 Norte 0 917.3 3.4 83
2019-11-23 09:00:00 6.4 30 Norte 49 Noroeste 0 916.5 3.4 88
2019-11-23 08:00:00 6.1 30 Norte 46 Norte 0.2 914.8 1.8 91
2019-11-23 07:00:00 6.6 33 Norte 50 Norte 0 913.9 1.6 83
2019-11-23 06:00:00 6.8 33 Norte 48 Norte 0 913.1 1.1 87
2019-11-23 05:00:00 6.1 21 Norte 44 Norte 1 913 0.8 94
2019-11-23 04:00:00 7.5 26 Norte 53 Noroeste 0.2 912.3 -0.5 94
2019-11-23 03:00:00 7.2 38 Norte 71 Norte 5.4 912 -0.8 92
2019-11-23 02:00:00 7.9 39 Noroeste 62 Noroeste 0.2 912.2 -0.6 91
2019-11-23 01:00:00 8.7 34 Noroeste 52 Noroeste 0 912.8 -0.3 91
2019-11-23 00:00:00 9 32 Noroeste 55 Noroeste 0 912.8 0.2 91
2019-11-22 23:00:00 9.6 30 Noroeste 46 Noroeste 0 912.8 0.2 87
2019-11-22 22:00:00 10 32 Noroeste 46 Norte 0 913.1 0.9 89
2019-11-22 21:00:00 10.3 30 Noroeste 43 Noroeste 0.2 912.6 0.2 90
2019-11-22 20:00:00 11 16 Noroeste 42 Noroeste 0 912.6 0.3 94
2019-11-22 19:00:00 11.1 16 Noroeste 46 Noroeste 2.2 912.2 -0.9 96
2019-11-22 18:00:00 11.6 28 Noroeste 46 Oeste 0.8 912.4 -1.3 91
2019-11-22 17:00:00 11.6 21 Oeste 48 Noroeste 1.8 912.3 -3.1 91
2019-11-22 16:00:00 12.1 28 Noroeste 46 Noroeste 1 913.1 -3.8 88
2019-11-22 15:00:00 10.8 14 Oeste 27 Oeste 3.2 913.7 -4.8 95
2019-11-22 14:00:00 10.9 18 Oeste 27 Oeste 2.6 915.4 -4.2 92
2019-11-22 13:00:00 11.4 15 Oeste 27 Oeste 0.4 916.9 -3.4 86
2019-11-22 12:00:00 11.3 15 Oeste 30 Oeste 0 918.5 -2.2 85
2019-11-22 11:00:00 10.6 13 Oeste 19 Oeste 0.2 919.6 -1.5 92
2019-11-22 10:00:00 9.3 12 Sudoeste 17 Sudoeste 0 920.3 -1.2 93
2019-11-22 09:00:00 7.7 6 Sudoeste 13 Oeste 0 920.7 -1.2 96
2019-11-22 08:00:00 7.3 7 Oeste 11 Sudoeste 0 921.1 -1.1 97
2019-11-22 07:00:00 7.1 6 Sudoeste 13 Sudoeste 0 921.5 -1.3 97
2019-11-22 06:00:00 7 9 Oeste 13 Oeste 0 921.9 -1.1 98
2019-11-22 05:00:00 6.8 5 Sur 12 Oeste 0 922.2 -1.3 98
2019-11-22 04:00:00 6.8 6 Sudoeste 11 Sudoeste 0 922.8 -1.3 98
2019-11-22 03:00:00 6.8 4 Sudoeste 10 Sudoeste 0 923 -1.6 98
2019-11-22 02:00:00 7.1 6 Oeste 9 Oeste 0 923.5 -1.2 98
2019-11-22 01:00:00 7 3 Sudoeste 4 Sur 0 924.1 -0.5 97
2019-11-22 00:00:00 7.5 2 Norte 8 Nordeste 0 924.6 0 98
2019-11-21 23:00:00 7.9 5 Norte 6 Norte 0 924.7 0.1 97
2019-11-21 22:00:00 8.2 4 Noroeste 10 Noroeste 0 924.6 0.4 97
2019-11-21 21:00:00 8.2 5 Noroeste 12 Noroeste 0 924.6 0.6 96
2019-11-21 20:00:00 8.3 10 Noroeste 18 Noroeste 0 924.6 0.7 95
2019-11-21 19:00:00 8.6 13 Noroeste 18 Noroeste 0.2 924.2 0.2 94
2019-11-21 18:00:00 9.1 15 Noroeste 24 Noroeste 0 924 0 92
2019-11-21 17:00:00 9.3 11 Noroeste 23 Noroeste 0.2 923.9 -0.6 93
2019-11-21 16:00:00 9.4 11 Noroeste 18 Noroeste 1 924 -1.2 90
2019-11-21 15:00:00 10.2 12 Noroeste 19 Norte 0 924 -1.8 82
2019-11-21 14:00:00 9.9 11 Noroeste 20 Norte 0 924.5 -1.5 82
2019-11-21 13:00:00 9.7 17 Norte 28 Noroeste 0 925.2 -0.6 81
2019-11-21 12:00:00 9.7 19 Norte 29 Norte 0 925.8 0.1 81
2019-11-21 11:00:00 9.1 17 Noroeste 25 Noroeste 0 926 0.7 87
2019-11-21 10:00:00 6.8 5 Noroeste 8 Noroeste 0 925.8 0.9 96
2019-11-21 09:00:00 5.6 3 Sur 4 Sur 0 925.7 0.9 97
2019-11-21 08:00:00 5.2 0 Calma 8 Norte 0 925.3 0.4 96
2019-11-21 07:00:00 5.3 0 Calma 17 Noroeste 0 924.9 -0.3 95
2019-11-21 06:00:00 6.2 11 Noroeste 20 Noroeste 0.2 924.8 -0.5 96
2019-11-21 05:00:00 6.2 9 Norte 14 Noroeste 0 924.9 -0.3 96
2019-11-21 04:00:00 6.2 8 Norte 13 Norte 0 925.2 -0.3 96
2019-11-21 03:00:00 6 10 Norte 20 Noroeste 0 925.3 -0.1 95
2019-11-21 02:00:00 6.1 11 Norte 23 Noroeste 0 925.2 -0.3 95
2019-11-21 01:00:00 6.2 15 Norte 22 Norte 0 925.5 0 94
2019-11-21 00:00:00 5.9 10 Noroeste 14 Noroeste 0 925.4 -0.2 94
2019-11-20 23:00:00 5.5 4 Oeste 8 Oeste 0 925.5 0 94
2019-11-20 22:00:00 5.4 7 Oeste 10 Oeste 0 925.5 -0.1 94
2019-11-20 21:00:00 5.3 4 Oeste 9 Oeste 0 925.6 0 92
2019-11-20 20:00:00 5.3 6 Oeste 15 Noroeste 0.6 925.5 0 91
2019-11-20 19:00:00 5.3 11 Noroeste 26 Noroeste 1 925.6 0.3 88
2019-11-20 18:00:00 6.3 11 Noroeste 21 Noroeste 0.6 925.6 0.1 90
2019-11-20 17:00:00 7 13 Norte 29 Noroeste 0 925.5 -0.3 79
2019-11-20 16:00:00 9.1 18 Noroeste 26 Norte 0 925.3 -1.5 52
2019-11-20 15:00:00 9.7 20 Noroeste 27 Norte 0 925.5 -2.1 52
2019-11-20 14:00:00 10.4 10 Noroeste 18 Norte 0 925.8 -2.5 59
2019-11-20 13:00:00 9.6 5 Noroeste 13 Oeste 0 926.8 -1.5 61
2019-11-20 12:00:00 8.4 5 Oeste 10 Oeste 0 927.6 -0.6 65
2019-11-20 11:00:00 6.2 3 Sudoeste 8 Este 0 928.3 0.2 74
2019-11-20 10:00:00 3.2 4 Este 10 Este 0 928.3 0.1 86
2019-11-20 09:00:00 0.3 6 Este 9 Sudeste 0 928.2 -0.2 93
2019-11-20 08:00:00 -1 6 Este 13 Este 0 928.1 -0.7 95
2019-11-20 07:00:00 -0.6 9 Este 13 Este 0 928.2 -0.9 96
2019-11-20 06:00:00 -0.5 8 Este 10 Este 0 928.4 -1 95
2019-11-20 05:00:00 -0.1 5 Este 9 Este 0 928.8 -0.9 95
2019-11-20 04:00:00 0.3 8 Este 11 Este 0 929.1 -1 93
2019-11-20 03:00:00 0.8 7 Este 10 Este 0 929.4 -1.1 94
2019-11-20 02:00:00 0.7 6 Este 8 Sudeste 0 929.7 -1.3 92
2019-11-20 01:00:00 1.5 7 Este 8 Este 0 930.1 -1.1 91
2019-11-20 00:00:00 1.8 8 Este 10 Este 0 930.5 -0.7 91
2019-11-19 23:00:00 2.1 5 Este 7 Este 0 931 -0.2 90
2019-11-19 22:00:00 2.5 2 Sudeste 4 Sudeste 0 931.2 0.2 88
2019-11-19 21:00:00 3.3 2 Sur 6 Norte 0 931.2 0.3 86
2019-11-19 20:00:00 4.8 6 Norte 7 Norte 0 931.2 0.2 80
2019-11-19 19:00:00 4.9 4 Norte 8 Norte 0 931 0.1 81
2019-11-19 18:00:00 6.2 6 Norte 14 Norte 0 930.9 -0.4 78
2019-11-19 17:00:00 8 12 Norte 23 Norte 0 931 -0.8 67
2019-11-19 16:00:00 8.7 15 Norte 26 Norte 0 930.9 -1.5 62
2019-11-19 15:00:00 8.8 14 Norte 27 Norte 0 931.3 -2 64
2019-11-19 14:00:00 8.2 18 Norte 26 Nordeste 0 931.8 -2.1 62
2019-11-19 13:00:00 7.5 17 Norte 26 Norte 0 932.4 -1.4 69
2019-11-19 12:00:00 6.5 16 Norte 22 Norte 0 933.3 -0.3 70
2019-11-19 11:00:00 4.4 11 Norte 18 Norte 0 933.9 0.6 80
2019-11-19 10:00:00 3 13 Norte 18 Norte 0 933.8 1.1 81
2019-11-19 09:00:00 -0.1 13 Norte 19 Norte 0 933.6 1 90
2019-11-19 08:00:00 -1.8 14 Norte 18 Norte 0 933.3 0.9 96
2019-11-19 07:00:00 -1.9 14 Norte 19 Noroeste 0 932.7 0.1 96
2019-11-19 06:00:00 -1.6 15 Norte 19 Norte 0 932.6 -0.4 95
2019-11-19 05:00:00 -0.9 15 Norte 18 Norte 0 932.4 -0.3 94
2019-11-19 04:00:00 -0.9 12 Norte 18 Noroeste 0 932.6 -0.6 93
2019-11-19 03:00:00 -0.4 15 Norte 19 Noroeste 0 933 -0.1 92
2019-11-19 02:00:00 -0.1 4 Este 14 Norte 0 932.7 -0.2 90
2019-11-19 01:00:00 0.2 13 Norte 20 Norte 0 933.2 0.7 91
2019-11-19 00:00:00 0.6 12 Norte 21 Nordeste 0 933.1 1.2 88
2019-11-18 23:00:00 2.1 17 Norte 26 Nordeste 0 932.9 1.2 79
2019-11-18 22:00:00 3.8 19 Nordeste 29 Nordeste 0 932.5 1.6 73
2019-11-18 21:00:00 3.9 17 Nordeste 23 Nordeste 0 931.9 1.2 73
2019-11-18 20:00:00 3.5 15 Norte 26 Nordeste 0 931.7 1.7 76
2019-11-18 19:00:00 5.4 21 Nordeste 25 Nordeste 0 930.9 1.4 69
2019-11-18 18:00:00 6.4 13 Nordeste 26 Nordeste 0 930.7 1.6 67
2019-11-18 17:00:00 8.5 20 Nordeste 37 Este 0 930 0.9 59
2019-11-18 16:00:00 8.9 22 Nordeste 38 Este 0 929.5 0.4 57
2019-11-18 15:00:00 9.3 25 Nordeste 39 Nordeste 0 929.1 -0.2 56
2019-11-18 14:00:00 8.5 23 Este 39 Este 0 929.1 0 57
2019-11-18 13:00:00 8.5 27 Nordeste 45 Nordeste 0 929.1 1 65
2019-11-18 12:00:00 7.8 29 Nordeste 44 Este 0 929.3 1.9 69
2019-11-18 11:00:00 7 21 Nordeste 33 Nordeste 0 929.1 2.2 73
2019-11-18 10:00:00 5.3 21 Nordeste 30 Nordeste 0 928.1 1.7 78
2019-11-18 09:00:00 2.6 13 Norte 22 Norte 0 927.4 1.4 89
2019-11-18 08:00:00 1.5 16 Norte 19 Nordeste 0 926.9 1.4 91
2019-11-18 07:00:00 1.2 4 Nordeste 9 Norte 0 926.4 0.9 93
2019-11-18 06:00:00 1.5 0 Calma 15 Nordeste 0 926 0.5 93
2019-11-18 05:00:00 2.4 10 Este 24 Este 0 925.5 0.3 95
2019-11-18 04:00:00 2.2 12 Norte 17 Norte 0 925.5 -0.2 97
2019-11-18 03:00:00 2.8 4 Sudoeste 17 Norte 0 925.5 -0.3 97
2019-11-18 02:00:00 4.1 8 Norte 13 Norte 0 925.2 -1 96
2019-11-18 01:00:00 5.5 4 Noroeste 12 Noroeste 0 925.7 -0.2 95
2019-11-18 00:00:00 5.9 5 Noroeste 11 Oeste 0.6 925.8 -0.5 94
2019-11-17 23:00:00 6.1 9 Nordeste 37 Nordeste 2.2 926.2 -0.6 91
2019-11-17 22:00:00 6.7 21 Noroeste 33 Noroeste 3 925.9 -1.2 98
2019-11-17 21:00:00 6.4 22 Noroeste 33 Noroeste 2.6 926.3 -1.6 97
2019-11-17 20:00:00 6.3 21 Noroeste 41 Norte 0.4 926.8 -1.3 97
2019-11-17 19:00:00 6.5 26 Noroeste 42 Noroeste 0 927.1 -1.5 97
2019-11-17 18:00:00 6.1 26 Noroeste 38 Norte 0 927.9 -1.2 95
2019-11-17 17:00:00 5.9 25 Noroeste 36 Noroeste 0 928.1 -1.7 93
2019-11-17 16:00:00 5.8 24 Noroeste 40 Norte 0 928.6 -2 94
2019-11-17 15:00:00 5.5 23 Noroeste 41 Norte 0 929.1 -1.9 92
2019-11-17 14:00:00 4.9 24 Noroeste 39 Noroeste 0 929.8 -1.8 95
2019-11-17 13:00:00 5.5 31 Noroeste 44 Norte 0 930.6 -0.8 85
2019-11-17 12:00:00 6.9 26 Norte 40 Norte 0 931 -0.1 70
2019-11-17 11:00:00 5 31 Norte 42 Norte 0 931.6 0.3 78
2019-11-17 10:00:00 2.8 21 Norte 28 Norte 0 931.4 0.2 87
2019-11-17 09:00:00 0 11 Norte 15 Norte 0 931.1 0 91
2019-11-17 08:00:00 -1.6 8 Norte 13 Norte 0 931.3 0 94
2019-11-17 07:00:00 -1.5 12 Norte 18 Norte 0 931.2 0 94
2019-11-17 06:00:00 -1.7 12 Norte 17 Norte 0 931.1 0 93
2019-11-17 05:00:00 -1.1 13 Norte 18 Norte 0 931.3 -0.2 92
2019-11-17 04:00:00 -1.6 11 Norte 15 Norte 0 931.2 -0.5 92
2019-11-17 03:00:00 -1 10 Norte 18 Norte 0 931.1 -0.7 93
2019-11-17 02:00:00 -1.4 14 Norte 18 Norte 0 931.5 -0.1 94
2019-11-17 01:00:00 -0.5 14 Norte 17 Norte 0 931.7 0 91
2019-11-17 00:00:00 -0.1 14 Norte 17 Norte 0 931.8 0.4 88
2019-11-16 23:00:00 0.7 12 Norte 17 Norte 0 931.6 0.3 85
2019-11-16 22:00:00 1.5 10 Norte 14 Noroeste 0 931.7 0.8 81
2019-11-16 21:00:00 2.2 6 Noroeste 10 Norte 0 931.4 0.7 78
2019-11-16 20:00:00 3.3 8 Norte 10 Norte 0 931.3 1 75
2019-11-16 19:00:00 4.5 11 Norte 18 Norte 0 930.9 1.1 71
2019-11-16 18:00:00 6 14 Norte 28 Norte 0 930.7 1.3 63
2019-11-16 17:00:00 8.3 22 Nordeste 37 Norte 0 930.3 1 49
2019-11-16 16:00:00 8.4 22 Norte 39 Norte 0 929.8 0.4 53
2019-11-16 15:00:00 8.1 24 Nordeste 37 Norte 0 929.4 -0.3 50
2019-11-16 14:00:00 8.1 25 Norte 37 Norte 0 929.3 0.1 57
2019-11-16 13:00:00 7.2 20 Nordeste 34 Nordeste 0 929.4 0.3 60
2019-11-16 12:00:00 6.9 25 Nordeste 37 Nordeste 0 929.7 1.1 63
2019-11-16 11:00:00 4.9 15 Norte 27 Nordeste 0 929.2 1.2 74
2019-11-16 10:00:00 2.5 16 Norte 23 Norte 0 929.1 2.4 86
2019-11-16 09:00:00 0.2 13 Norte 17 Norte 0 928.6 2.9 93
2019-11-16 08:00:00 -1 15 Norte 19 Norte 0 928 2.9 95
2019-11-16 07:00:00 -0.8 13 Norte 17 Norte 0 926.7 2 95
2019-11-16 06:00:00 -0.3 14 Norte 18 Norte 0 925.7 1.4 95
2019-11-16 05:00:00 -0.1 15 Norte 19 Norte 0 925.1 1.1 94
2019-11-16 04:00:00 0.1 13 Norte 17 Norte 0 924.7 0.8 95
2019-11-16 03:00:00 1.5 11 Norte 19 Norte 0 924.3 0.5 92
2019-11-16 02:00:00 2.5 10 Norte 15 Norte 0 924 0.6 93
2019-11-16 01:00:00 2.6 11 Norte 14 Norte 0 923.9 1.1 91
2019-11-16 00:00:00 3.5 4 Norte 16 Norte 0 923.8 1.5 90